createdAt,value
2022-09-25T00:01:32.491Z,9.80
2022-09-25T00:04:02.898Z,9.70
2022-09-25T00:06:32.982Z,9.80
2022-09-25T00:09:03.048Z,9.70
2022-09-25T00:11:33.743Z,9.70
2022-09-25T00:14:02.939Z,9.70
2022-09-25T00:16:33.077Z,9.80
2022-09-25T00:19:20.782Z,9.70
2022-09-25T00:21:53.097Z,9.70
2022-09-25T00:24:22.478Z,9.70
2022-09-25T00:26:50.663Z,9.70
2022-09-25T00:29:21.580Z,9.70
2022-09-25T00:31:50.186Z,9.70
2022-09-25T00:34:19.691Z,9.60
2022-09-25T00:36:47.809Z,9.70
2022-09-25T00:39:16.557Z,9.80
2022-09-25T00:41:44.739Z,9.70
2022-09-25T00:44:56.987Z,9.70
2022-09-25T00:47:32.080Z,9.70
2022-09-25T00:50:05.842Z,9.70
2022-09-25T00:52:33.989Z,9.70
2022-09-25T00:55:06.789Z,9.70
2022-09-25T00:57:38.095Z,9.70
2022-09-25T01:00:09.853Z,9.70
2022-09-25T01:02:42.287Z,9.60
2022-09-25T01:05:14.996Z,9.60
2022-09-25T01:07:46.011Z,9.70
2022-09-25T01:10:16.039Z,9.70
2022-09-25T01:12:46.833Z,9.60
2022-09-25T01:15:18.429Z,9.60
2022-09-25T01:17:57.319Z,9.60
2022-09-25T01:20:43.982Z,9.60
2022-09-25T01:23:29.606Z,9.60
2022-09-25T01:26:15.956Z,9.50
2022-09-25T01:29:02.504Z,9.50
2022-09-25T01:31:36.511Z,9.40
2022-09-25T01:34:13.597Z,9.40
2022-09-25T01:36:49.243Z,9.40
2022-09-25T01:39:22.770Z,9.30
2022-09-25T01:41:55.649Z,9.30
2022-09-25T01:44:30.307Z,9.20
2022-09-25T01:47:07.516Z,9.20
2022-09-25T01:49:39.843Z,9.20
2022-09-25T01:52:14.195Z,9.20
2022-09-25T01:54:45.606Z,9.20
2022-09-25T01:57:18.959Z,9.20
2022-09-25T01:59:55.347Z,9.20
2022-09-25T02:02:29.260Z,9.20
2022-09-25T02:05:00.847Z,9.10
2022-09-25T02:07:34.428Z,9.10
2022-09-25T02:10:06.743Z,9.20
2022-09-25T02:12:41.451Z,9.20
2022-09-25T02:15:14.613Z,9.20
2022-09-25T02:18:06.730Z,9.10
2022-09-25T02:20:41.941Z,9.10
2022-09-25T02:23:18.876Z,9.10
2022-09-25T02:25:56.452Z,9.00
2022-09-25T02:28:24.860Z,9.00
2022-09-25T02:30:57.621Z,9.00
2022-09-25T02:33:26.797Z,8.90
2022-09-25T02:35:55.331Z,8.80
2022-09-25T02:38:23.601Z,8.80
2022-09-25T02:40:57.403Z,8.80
2022-09-25T02:43:38.383Z,8.70
2022-09-25T02:46:15.264Z,8.70
2022-09-25T02:48:52.490Z,8.60
2022-09-25T02:51:30.478Z,8.60
2022-09-25T02:54:06.647Z,8.60
2022-09-25T02:56:38.575Z,8.50
2022-09-25T02:59:10.204Z,8.50
2022-09-25T03:01:43.864Z,8.50
2022-09-25T03:04:13.098Z,8.40
2022-09-25T03:06:42.558Z,8.40
2022-09-25T03:09:11.787Z,8.30
2022-09-25T03:11:41.561Z,8.20
2022-09-25T03:14:10.556Z,8.20
2022-09-25T03:16:46.317Z,8.20
2022-09-25T03:19:15.311Z,8.10
2022-09-25T03:21:43.576Z,8.10
2022-09-25T03:24:11.862Z,8.10
2022-09-25T03:26:40.610Z,8.00
2022-09-25T03:29:09.226Z,8.00
2022-09-25T03:31:37.590Z,8.00
2022-09-25T03:34:07.159Z,7.90
2022-09-25T03:36:35.765Z,7.90
2022-09-25T03:39:04.324Z,7.90
2022-09-25T03:41:35.222Z,7.90
2022-09-25T03:44:04.329Z,7.90
2022-09-25T03:46:35.731Z,7.80
2022-09-25T03:49:05.940Z,7.80
2022-09-25T03:51:35.286Z,7.80
2022-09-25T03:54:04.482Z,7.70
2022-09-25T03:56:32.965Z,7.70
2022-09-25T03:59:01.706Z,7.70
2022-09-25T04:01:30.148Z,7.70
2022-09-25T04:04:01.119Z,7.70
2022-09-25T04:06:31.061Z,7.70
2022-09-25T04:08:59.200Z,7.70
2022-09-25T04:11:27.291Z,7.60
2022-09-25T04:13:57.169Z,7.60
2022-09-25T04:16:26.025Z,7.50
2022-09-25T04:18:54.229Z,7.50
2022-09-25T04:21:22.670Z,7.40
2022-09-25T04:24:06.204Z,7.40
2022-09-25T04:26:35.676Z,7.40
2022-09-25T04:29:03.970Z,7.50
2022-09-25T04:31:32.501Z,7.50
2022-09-25T04:34:00.225Z,7.40
2022-09-25T04:36:28.381Z,7.40
2022-09-25T04:38:57.914Z,7.50
2022-09-25T04:41:26.496Z,7.40
2022-09-25T04:43:54.723Z,7.40
2022-09-25T04:46:23.106Z,7.30
2022-09-25T04:48:51.946Z,7.20
2022-09-25T04:51:20.090Z,7.20
2022-09-25T04:53:48.194Z,7.20
2022-09-25T04:56:18.111Z,7.10
2022-09-25T04:58:47.557Z,7.10
2022-09-25T05:01:16.961Z,7.00
2022-09-25T05:03:45.410Z,7.00
2022-09-25T05:06:13.678Z,7.00
2022-09-25T05:08:41.833Z,7.00
2022-09-25T05:11:10.287Z,6.90
2022-09-25T05:13:40.121Z,7.00
2022-09-25T05:16:08.880Z,7.00
2022-09-25T05:18:37.231Z,7.00
2022-09-25T05:21:06.167Z,6.90
2022-09-25T05:23:34.267Z,6.90
2022-09-25T05:26:03.046Z,6.90
2022-09-25T05:28:31.236Z,6.90
2022-09-25T05:31:03.815Z,6.90
2022-09-25T05:33:32.809Z,6.90
2022-09-25T05:36:02.800Z,6.90
2022-09-25T05:38:34.435Z,6.90
2022-09-25T05:41:05.175Z,6.90
2022-09-25T05:43:34.338Z,6.90
2022-09-25T05:46:04.273Z,7.00
2022-09-25T05:48:32.589Z,7.00
2022-09-25T05:51:00.914Z,7.00
2022-09-25T05:53:31.083Z,7.00
2022-09-25T05:56:00.285Z,7.00
2022-09-25T05:58:30.206Z,7.00
2022-09-25T06:01:01.602Z,7.10
2022-09-25T06:03:31.473Z,7.10
2022-09-25T06:06:00.163Z,7.10
2022-09-25T06:08:31.486Z,7.00
2022-09-25T06:11:00.802Z,7.10
2022-09-25T06:13:30.198Z,7.00
2022-09-25T06:15:58.619Z,7.10
2022-09-25T06:18:27.777Z,7.10
2022-09-25T06:21:02.862Z,7.10
2022-09-25T06:23:31.657Z,7.20
2022-09-25T06:26:04.127Z,7.30
2022-09-25T06:28:32.519Z,7.30
2022-09-25T06:31:02.343Z,7.30
2022-09-25T06:33:31.224Z,7.30
2022-09-25T06:36:01.487Z,7.30
2022-09-25T06:38:29.836Z,7.30
2022-09-25T06:41:00.885Z,7.50
2022-09-25T06:43:30.133Z,7.60
2022-09-25T06:46:03.930Z,7.80
2022-09-25T06:48:32.729Z,8.10
2022-09-25T06:51:02.846Z,8.30
2022-09-25T06:53:31.477Z,8.50
2022-09-25T06:56:00.971Z,8.70
2022-09-25T06:58:30.549Z,8.90
2022-09-25T07:00:59.609Z,9.20
2022-09-25T07:03:45.893Z,9.40
2022-09-25T07:06:18.272Z,9.70
2022-09-25T07:08:48.204Z,10.00
2022-09-25T07:11:20.298Z,10.30
2022-09-25T07:13:53.175Z,10.50
2022-09-25T07:16:24.337Z,10.80
2022-09-25T07:18:55.158Z,11.00
2022-09-25T07:21:28.113Z,11.20
2022-09-25T07:23:57.504Z,11.40
2022-09-25T07:26:28.347Z,11.60
2022-09-25T07:28:58.793Z,11.80
2022-09-25T07:31:29.417Z,11.80
2022-09-25T07:34:00.262Z,11.90
2022-09-25T07:36:30.760Z,11.90
2022-09-25T07:38:58.827Z,11.80
2022-09-25T07:41:27.189Z,11.80
2022-09-25T07:44:11.937Z,11.90
2022-09-25T07:46:46.094Z,11.90
2022-09-25T07:49:15.038Z,11.90
2022-09-25T07:51:44.558Z,11.90
2022-09-25T07:54:12.864Z,11.80
2022-09-25T07:56:41.286Z,11.80
2022-09-25T07:59:09.398Z,11.80
2022-09-25T08:01:42.757Z,11.80
2022-09-25T08:04:12.921Z,11.70
2022-09-25T08:06:41.243Z,11.80
2022-09-25T08:09:11.778Z,11.90
2022-09-25T08:11:40.242Z,12.10
2022-09-25T08:14:08.494Z,12.30
2022-09-25T08:16:36.823Z,12.80
2022-09-25T08:19:05.617Z,13.00
2022-09-25T08:21:35.091Z,13.30
2022-09-25T08:24:03.732Z,13.70
2022-09-25T08:26:33.630Z,14.00
2022-09-25T08:29:01.873Z,14.70
2022-09-25T08:31:30.106Z,15.10
2022-09-25T08:34:14.909Z,16.00
2022-09-25T08:36:49.865Z,16.70
2022-09-25T08:39:18.797Z,16.90
2022-09-25T08:41:51.554Z,17.10
2022-09-25T08:44:27.629Z,17.10
2022-09-25T08:47:19.764Z,17.70
2022-09-25T08:49:55.207Z,18.30
2022-09-25T08:52:23.590Z,18.70
2022-09-25T08:54:52.455Z,19.50
2022-09-25T08:57:35.306Z,20.40
2022-09-25T09:00:06.527Z,21.10
2022-09-25T09:02:42.735Z,21.30
2022-09-25T09:05:21.538Z,21.60
2022-09-25T09:07:55.061Z,21.80
2022-09-25T09:10:31.509Z,21.50
2022-09-25T09:13:05.896Z,21.60
2022-09-25T09:15:38.663Z,21.00
2022-09-25T09:18:18.174Z,20.90
2022-09-25T09:20:52.439Z,20.50
2022-09-25T09:23:23.188Z,20.10
2022-09-25T09:26:01.212Z,19.70
2022-09-25T09:28:50.195Z,20.00
2022-09-25T09:31:26.875Z,20.10
2022-09-25T09:34:03.281Z,20.30
2022-09-25T09:36:38.798Z,20.60
2022-09-25T09:39:17.812Z,21.30
2022-09-25T09:41:56.484Z,21.50
2022-09-25T09:44:41.125Z,21.60
2022-09-25T09:47:22.622Z,20.40
2022-09-25T09:49:57.332Z,20.10
2022-09-25T09:52:31.141Z,19.80
2022-09-25T09:55:04.454Z,20.10
2022-09-25T09:57:38.941Z,20.30
2022-09-25T10:00:17.030Z,20.40
2022-09-25T10:02:49.925Z,21.60
2022-09-25T10:05:24.842Z,22.60
2022-09-25T10:07:53.841Z,23.30
2022-09-25T10:10:23.734Z,23.40
2022-09-25T10:12:54.190Z,22.70
2022-09-25T10:15:31.035Z,22.00
2022-09-25T10:18:02.536Z,22.20
2022-09-25T10:20:40.173Z,23.30
2022-09-25T10:23:18.848Z,23.80
2022-09-25T10:25:48.740Z,23.90
2022-09-25T10:28:28.578Z,24.20
2022-09-25T10:30:59.710Z,25.00
2022-09-25T10:33:30.855Z,25.80
2022-09-25T10:35:59.443Z,26.80
2022-09-25T10:38:37.749Z,25.60
2022-09-25T10:41:09.564Z,26.00
2022-09-25T10:43:52.485Z,26.00
2022-09-25T10:46:44.010Z,23.20
2022-09-25T10:49:42.585Z,21.70
2022-09-25T10:52:13.965Z,20.20
2022-09-25T10:54:45.485Z,19.00
2022-09-25T10:57:23.618Z,18.60
2022-09-25T10:59:53.050Z,18.50
2022-09-25T11:02:34.262Z,18.60
2022-09-25T11:05:02.946Z,18.30
2022-09-25T11:07:33.070Z,18.00
2022-09-25T11:10:01.621Z,17.90
2022-09-25T11:12:30.635Z,17.70
2022-09-25T11:15:02.588Z,17.90
2022-09-25T11:17:38.240Z,17.90
2022-09-25T11:20:32.079Z,18.00
2022-09-25T11:23:15.253Z,18.10
2022-09-25T11:25:49.397Z,18.20
2022-09-25T11:28:28.007Z,18.00
2022-09-25T11:31:02.628Z,17.90
2022-09-25T11:33:42.366Z,17.70
2022-09-25T11:36:18.550Z,17.80
2022-09-25T11:39:06.525Z,17.90
2022-09-25T11:41:41.389Z,17.80
2022-09-25T11:44:22.638Z,17.40
2022-09-25T11:47:00.155Z,17.40
2022-09-25T11:49:32.033Z,17.50
2022-09-25T11:52:26.551Z,17.30
2022-09-25T11:55:24.490Z,17.20
2022-09-25T11:58:02.071Z,17.10
2022-09-25T12:00:41.731Z,17.10
2022-09-25T12:03:30.042Z,17.20
2022-09-25T12:06:21.871Z,17.20
2022-09-25T12:09:07.331Z,17.20
2022-09-25T12:11:45.800Z,17.30
2022-09-25T12:14:22.223Z,17.20
2022-09-25T12:16:58.181Z,17.20
2022-09-25T12:19:39.493Z,17.30
2022-09-25T12:22:17.768Z,17.00
2022-09-25T12:24:57.493Z,16.80
2022-09-25T12:27:42.118Z,16.80
2022-09-25T12:30:18.973Z,16.90
2022-09-25T12:33:15.787Z,16.90
2022-09-25T12:35:54.238Z,16.90
2022-09-25T12:38:31.364Z,16.80
2022-09-25T12:41:08.699Z,16.70
2022-09-25T12:43:42.476Z,16.60
2022-09-25T12:46:17.807Z,16.50
2022-09-25T12:48:51.410Z,16.40
2022-09-25T12:51:23.756Z,16.70
2022-09-25T12:53:58.512Z,17.00
2022-09-25T12:56:32.737Z,17.20
2022-09-25T12:59:13.715Z,17.20
2022-09-25T13:01:53.646Z,17.30
2022-09-25T13:04:36.170Z,17.40
2022-09-25T13:07:15.885Z,17.20
2022-09-25T13:09:47.138Z,17.10
2022-09-25T13:12:27.275Z,17.00
2022-09-25T13:14:59.839Z,16.90
2022-09-25T13:17:28.385Z,16.90
2022-09-25T13:20:16.614Z,16.90
2022-09-25T13:22:45.016Z,17.00
2022-09-25T13:25:18.671Z,17.00
2022-09-25T13:27:48.418Z,16.80
2022-09-25T13:30:23.132Z,16.70
2022-09-25T13:32:53.479Z,16.60
2022-09-25T13:35:23.654Z,16.60
2022-09-25T13:38:09.550Z,16.60
2022-09-25T13:40:43.081Z,16.50
2022-09-25T13:43:20.953Z,16.50
2022-09-25T13:45:50.376Z,16.40
2022-09-25T13:48:37.996Z,16.40
2022-09-25T13:51:28.801Z,16.30
2022-09-25T13:54:00.322Z,16.30
2022-09-25T13:56:47.090Z,16.30
2022-09-25T13:59:37.627Z,16.20
2022-09-25T14:02:35.027Z,16.20
2022-09-25T14:05:04.463Z,16.10
2022-09-25T14:07:33.846Z,16.10
2022-09-25T14:10:03.069Z,16.10
2022-09-25T14:12:42.775Z,16.10
2022-09-25T14:15:21.367Z,16.10
2022-09-25T14:17:52.980Z,16.10
2022-09-25T14:20:33.474Z,16.10
2022-09-25T14:23:06.606Z,16.00
2022-09-25T14:25:38.280Z,16.00
2022-09-25T14:28:20.469Z,16.00
2022-09-25T14:31:14.443Z,16.00
2022-09-25T14:34:15.050Z,16.00
2022-09-25T14:37:00.474Z,16.00
2022-09-25T14:39:43.244Z,16.90
2022-09-25T14:42:34.113Z,20.90
2022-09-25T14:45:27.263Z,24.00
2022-09-25T14:48:00.840Z,25.20
2022-09-25T14:50:33.052Z,25.60
2022-09-25T14:53:04.879Z,27.00
2022-09-25T14:55:38.027Z,26.20
2022-09-25T14:58:10.336Z,24.90
2022-09-25T15:00:46.999Z,23.90
2022-09-25T15:03:19.180Z,23.60
2022-09-25T15:05:49.343Z,23.60
2022-09-25T15:08:23.686Z,24.00
2022-09-25T15:11:03.279Z,24.00
2022-09-25T15:13:34.508Z,23.10
2022-09-25T15:16:24.068Z,22.90
2022-09-25T15:18:59.214Z,22.50
2022-09-25T15:21:30.275Z,22.50
2022-09-25T15:24:01.125Z,22.10
2022-09-25T15:26:30.127Z,22.60
2022-09-25T15:28:59.143Z,22.70
2022-09-25T15:31:37.584Z,22.20
2022-09-25T15:34:12.707Z,21.20
2022-09-25T15:36:41.094Z,19.60
2022-09-25T15:39:16.366Z,17.90
2022-09-25T15:41:45.055Z,16.70
2022-09-25T15:44:18.634Z,15.80
2022-09-25T15:46:49.805Z,15.20
2022-09-25T15:49:21.774Z,14.90
2022-09-25T15:52:00.371Z,14.70
2022-09-25T15:54:38.434Z,14.60
2022-09-25T15:57:11.309Z,14.50
2022-09-25T16:00:04.382Z,14.40
2022-09-25T16:02:55.169Z,14.40
2022-09-25T16:05:29.861Z,14.30
2022-09-25T16:08:17.219Z,14.20
2022-09-25T16:10:50.069Z,14.10
2022-09-25T16:13:23.754Z,14.10
2022-09-25T16:15:53.343Z,14.00
2022-09-25T16:18:32.482Z,14.00
2022-09-25T16:21:21.082Z,14.00
2022-09-25T16:23:56.433Z,13.90
2022-09-25T16:26:28.964Z,13.80
2022-09-25T16:29:17.083Z,13.70
2022-09-25T16:31:47.042Z,13.60
2022-09-25T16:34:26.873Z,13.50
2022-09-25T16:36:58.324Z,13.40
2022-09-25T16:39:29.794Z,13.30
2022-09-25T16:41:59.538Z,13.30
2022-09-25T16:44:42.254Z,13.20
2022-09-25T16:47:19.835Z,13.00
2022-09-25T16:49:50.178Z,12.90
2022-09-25T16:52:22.550Z,12.80
2022-09-25T16:54:54.289Z,12.60
2022-09-25T16:57:24.543Z,12.50
2022-09-25T16:59:53.362Z,12.40
2022-09-25T17:02:33.439Z,12.30
2022-09-25T17:05:05.755Z,12.20
2022-09-25T17:07:36.081Z,12.10
2022-09-25T17:10:04.836Z,12.10
2022-09-25T17:12:33.079Z,11.90
2022-09-25T17:15:01.654Z,11.90
2022-09-25T17:17:31.144Z,11.90
2022-09-25T17:19:59.374Z,11.80
2022-09-25T17:22:30.573Z,11.70
2022-09-25T17:25:02.898Z,11.70
2022-09-25T17:27:31.123Z,11.60
2022-09-25T17:29:59.249Z,11.50
2022-09-25T17:32:29.405Z,11.50
2022-09-25T17:34:58.967Z,11.40
2022-09-25T17:37:28.565Z,11.40
2022-09-25T17:39:56.663Z,11.40
2022-09-25T17:42:26.802Z,11.30
2022-09-25T17:44:56.314Z,11.30
2022-09-25T17:47:24.943Z,11.30
2022-09-25T17:49:53.306Z,11.30
2022-09-25T17:52:22.269Z,11.20
2022-09-25T17:54:51.803Z,11.20
2022-09-25T17:57:20.468Z,11.10
2022-09-25T17:59:48.801Z,11.10
2022-09-25T18:02:18.078Z,11.10
2022-09-25T18:04:46.411Z,11.10
2022-09-25T18:07:15.397Z,11.10
2022-09-25T18:09:43.820Z,11.20
2022-09-25T18:12:13.709Z,11.20
2022-09-25T18:14:43.124Z,11.30
2022-09-25T18:17:16.225Z,11.40
2022-09-25T18:20:02.251Z,11.40
2022-09-25T18:22:30.409Z,11.40
2022-09-25T18:24:58.699Z,11.40
2022-09-25T18:27:30.959Z,11.30
2022-09-25T18:29:59.736Z,11.40
2022-09-25T18:32:27.839Z,11.30
2022-09-25T18:34:56.604Z,11.30
2022-09-25T18:37:24.791Z,11.20
2022-09-25T18:39:52.951Z,11.20
2022-09-25T18:42:21.253Z,11.20
2022-09-25T18:44:51.213Z,11.20
2022-09-25T18:47:19.477Z,11.10
2022-09-25T18:49:49.134Z,11.20
2022-09-25T18:52:17.806Z,11.20
2022-09-25T18:54:46.006Z,11.10
2022-09-25T18:57:14.981Z,11.10
2022-09-25T18:59:43.439Z,11.10
2022-09-25T19:02:21.324Z,11.10
2022-09-25T19:04:52.396Z,11.00
2022-09-25T19:07:20.774Z,10.90
2022-09-25T19:09:49.411Z,10.80
2022-09-25T19:12:18.164Z,10.70
2022-09-25T19:14:47.718Z,10.60
2022-09-25T19:17:18.941Z,10.60
2022-09-25T19:19:47.625Z,10.70
2022-09-25T19:22:17.766Z,10.70
2022-09-25T19:24:46.707Z,10.60
2022-09-25T19:27:16.953Z,10.60
2022-09-25T19:29:46.678Z,10.60
2022-09-25T19:32:18.086Z,10.60
2022-09-25T19:34:46.389Z,10.60
2022-09-25T19:37:15.299Z,10.60
2022-09-25T19:40:01.239Z,10.70
2022-09-25T19:42:33.724Z,10.70
2022-09-25T19:45:02.338Z,10.60
2022-09-25T19:47:32.044Z,10.50
2022-09-25T19:50:00.204Z,10.40
2022-09-25T19:52:28.985Z,10.40
2022-09-25T19:54:57.174Z,10.40
2022-09-25T19:57:25.547Z,10.50
2022-09-25T19:59:54.292Z,10.40
2022-09-25T20:02:22.471Z,10.40
2022-09-25T20:04:52.023Z,10.40
2022-09-25T20:07:20.515Z,10.30
2022-09-25T20:09:48.737Z,10.30
2022-09-25T20:12:16.854Z,10.30
2022-09-25T20:14:45.651Z,10.40
2022-09-25T20:17:13.732Z,10.40
2022-09-25T20:19:42.175Z,10.40
2022-09-25T20:22:12.015Z,10.50
2022-09-25T20:24:40.244Z,10.50
2022-09-25T20:27:08.677Z,10.50
2022-09-25T20:29:37.329Z,10.40
2022-09-25T20:32:05.727Z,10.30
2022-09-25T20:34:34.042Z,10.30
2022-09-25T20:37:03.768Z,10.30
2022-09-25T20:39:33.270Z,10.40
2022-09-25T20:42:01.367Z,10.50
2022-09-25T20:44:30.186Z,10.50
2022-09-25T20:46:58.349Z,10.50
2022-09-25T20:49:26.593Z,10.40
2022-09-25T20:51:55.068Z,10.40
2022-09-25T20:54:25.598Z,10.40
2022-09-25T20:56:55.138Z,10.40
2022-09-25T20:59:23.488Z,10.40
2022-09-25T21:01:51.810Z,10.40
2022-09-25T21:04:20.046Z,10.30
2022-09-25T21:06:48.281Z,10.40
2022-09-25T21:09:21.213Z,10.40
2022-09-25T21:11:50.196Z,10.50
2022-09-25T21:14:24.086Z,10.60
2022-09-25T21:16:53.366Z,10.70
2022-09-25T21:19:23.340Z,10.80
2022-09-25T21:21:51.993Z,10.90
2022-09-25T21:24:22.106Z,11.00
2022-09-25T21:26:50.915Z,11.00
2022-09-25T21:29:21.026Z,11.00
2022-09-25T21:31:50.842Z,11.10
2022-09-25T21:34:20.689Z,11.20
2022-09-25T21:36:49.139Z,11.20
2022-09-25T21:39:18.533Z,11.20
2022-09-25T21:41:49.375Z,11.20
2022-09-25T21:44:23.480Z,11.20
2022-09-25T21:46:52.196Z,11.20
2022-09-25T21:49:21.996Z,11.10
2022-09-25T21:51:51.127Z,11.10
2022-09-25T21:54:20.833Z,11.10
2022-09-25T21:56:49.563Z,11.10
2022-09-25T21:59:18.551Z,11.00
2022-09-25T22:01:48.686Z,10.90
2022-09-25T22:04:17.579Z,10.90
2022-09-25T22:06:47.965Z,10.80
2022-09-25T22:09:18.240Z,10.70
2022-09-25T22:11:47.089Z,10.70
2022-09-25T22:14:16.843Z,10.60
2022-09-25T22:16:48.617Z,10.70
2022-09-25T22:19:19.246Z,10.70
2022-09-25T22:21:49.052Z,10.70
2022-09-25T22:24:17.932Z,10.90
2022-09-25T22:26:47.514Z,10.90
2022-09-25T22:29:16.627Z,11.00
2022-09-25T22:31:45.805Z,11.10
2022-09-25T22:34:19.668Z,11.20
2022-09-25T22:36:49.338Z,11.40
2022-09-25T22:39:19.162Z,11.40
2022-09-25T22:41:51.773Z,11.40
2022-09-25T22:44:20.744Z,11.40
2022-09-25T22:46:49.778Z,11.50
2022-09-25T22:49:19.706Z,11.40
2022-09-25T22:51:47.964Z,11.40
2022-09-25T22:54:16.841Z,11.30
2022-09-25T22:56:45.725Z,11.20
2022-09-25T22:59:16.262Z,11.20
2022-09-25T23:01:48.564Z,11.20
2022-09-25T23:04:20.554Z,11.20
2022-09-25T23:06:49.139Z,11.20
2022-09-25T23:09:20.358Z,11.10
2022-09-25T23:11:48.563Z,11.10
2022-09-25T23:14:20.065Z,11.10
2022-09-25T23:16:49.739Z,11.10
2022-09-25T23:19:20.471Z,11.10
2022-09-25T23:21:48.957Z,11.00
2022-09-25T23:24:19.659Z,11.00
2022-09-25T23:26:48.115Z,11.00
2022-09-25T23:29:18.585Z,11.00
2022-09-25T23:31:47.777Z,11.00
2022-09-25T23:34:16.881Z,11.00
2022-09-25T23:36:46.768Z,11.00
2022-09-25T23:39:17.648Z,11.00
2022-09-25T23:41:46.645Z,11.10
2022-09-25T23:44:14.779Z,11.00
2022-09-25T23:46:44.482Z,11.10
2022-09-25T23:49:12.872Z,11.10
2022-09-25T23:51:41.022Z,11.10
2022-09-25T23:54:11.356Z,11.10
2022-09-25T23:56:40.939Z,11.10
2022-09-25T23:59:10.865Z,11.10
